sensor_id;sensor_type;location;lat;lon;timestamp;pressure;altitude;pressure_sealevel;temperature;humidity
31681;BME280;18281;51.364;9.566;2023-09-19T00:00:41;99190.16;;;13.51;100.00
31681;BME280;18281;51.364;9.566;2023-09-19T00:03:07;99189.75;;;13.12;100.00
31681;BME280;18281;51.364;9.566;2023-09-19T00:05:34;99199.34;;;13.24;100.00
31681;BME280;18281;51.364;9.566;2023-09-19T00:08:00;99194.72;;;13.49;100.00
31681;BME280;18281;51.364;9.566;2023-09-19T00:10:25;99201.09;;;13.90;100.00
31681;BME280;18281;51.364;9.566;2023-09-19T00:12:52;99201.78;;;13.92;100.00
31681;BME280;18281;51.364;9.566;2023-09-19T00:15:21;99195.28;;;13.97;100.00
31681;BME280;18281;51.364;9.566;2023-09-19T00:17:46;99195.41;;;13.95;100.00
31681;BME280;18281;51.364;9.566;2023-09-19T00:20:12;99194.72;;;13.49;100.00
31681;BME280;18281;51.364;9.566;2023-09-19T00:22:41;99203.97;;;13.76;100.00
31681;BME280;18281;51.364;9.566;2023-09-19T00:25:07;99212.59;;;13.89;100.00
31681;BME280;18281;51.364;9.566;2023-09-19T00:27:33;99216.03;;;14.01;100.00
31681;BME280;18281;51.364;9.566;2023-09-19T00:29:58;99215.09;;;13.91;100.00
31681;BME280;18281;51.364;9.566;2023-09-19T00:32:24;99219.81;;;13.76;100.00
31681;BME280;18281;51.364;9.566;2023-09-19T00:34:49;99213.31;;;13.80;100.00
31681;BME280;18281;51.364;9.566;2023-09-19T00:37:14;99217.59;;;13.92;100.00
31681;BME280;18281;51.364;9.566;2023-09-19T00:39:39;99209.97;;;13.78;100.00
31681;BME280;18281;51.364;9.566;2023-09-19T00:42:06;99211.47;;;13.59;100.00
31681;BME280;18281;51.364;9.566;2023-09-19T00:44:31;99217.72;;;13.91;100.00
31681;BME280;18281;51.364;9.566;2023-09-19T00:46:59;99226.38;;;13.82;100.00
31681;BME280;18281;51.364;9.566;2023-09-19T00:49:24;99231.41;;;13.85;100.00
31681;BME280;18281;51.364;9.566;2023-09-19T00:51:50;99219.22;;;13.72;100.00
31681;BME280;18281;51.364;9.566;2023-09-19T00:54:16;99220.00;;;13.52;100.00
31681;BME280;18281;51.364;9.566;2023-09-19T00:56:43;99222.50;;;13.65;100.00
31681;BME280;18281;51.364;9.566;2023-09-19T00:59:09;99226.28;;;13.72;100.00
31681;BME280;18281;51.364;9.566;2023-09-19T01:01:35;99227.84;;;13.74;100.00
31681;BME280;18281;51.364;9.566;2023-09-19T01:04:00;99226.63;;;13.79;100.00
31681;BME280;18281;51.364;9.566;2023-09-19T01:06:25;99227.22;;;13.82;100.00
31681;BME280;18281;51.364;9.566;2023-09-19T01:08:51;99230.63;;;13.62;100.00
31681;BME280;18281;51.364;9.566;2023-09-19T01:11:20;99228.38;;;13.57;100.00
31681;BME280;18281;51.364;9.566;2023-09-19T01:18:54;99237.34;;;12.99;100.00
31681;BME280;18281;51.364;9.566;2023-09-19T01:24:07;99230.13;;;13.13;100.00
31681;BME280;18281;51.364;9.566;2023-09-19T01:29:37;99231.69;;;13.04;100.00
31681;BME280;18281;51.364;9.566;2023-09-19T01:32:04;99248.06;;;13.41;100.00
31681;BME280;18281;51.364;9.566;2023-09-19T01:34:47;99247.72;;;13.35;100.00
31681;BME280;18281;51.364;9.566;2023-09-19T01:37:13;99248.78;;;13.32;100.00
31681;BME280;18281;51.364;9.566;2023-09-19T01:39:49;99251.16;;;13.58;100.00
31681;BME280;18281;51.364;9.566;2023-09-19T01:42:21;99255.84;;;13.43;100.00
31681;BME280;18281;51.364;9.566;2023-09-19T01:44:51;99267.13;;;13.22;100.00
31681;BME280;18281;51.364;9.566;2023-09-19T01:47:23;99267.59;;;13.50;100.00
31681;BME280;18281;51.364;9.566;2023-09-19T01:49:55;99268.91;;;13.56;100.00
31681;BME280;18281;51.364;9.566;2023-09-19T01:52:20;99275.47;;;13.62;100.00
31681;BME280;18281;51.364;9.566;2023-09-19T01:54:48;99276.97;;;13.32;100.00
31681;BME280;18281;51.364;9.566;2023-09-19T01:57:17;99290.88;;;13.22;100.00
31681;BME280;18281;51.364;9.566;2023-09-19T01:59:48;99287.00;;;13.49;100.00
31681;BME280;18281;51.364;9.566;2023-09-19T02:02:17;99284.75;;;13.33;100.00
31681;BME280;18281;51.364;9.566;2023-09-19T02:04:43;99299.00;;;13.08;100.00
31681;BME280;18281;51.364;9.566;2023-09-19T02:07:08;99290.38;;;13.06;100.00
31681;BME280;18281;51.364;9.566;2023-09-19T02:09:33;99296.00;;;13.01;100.00
31681;BME280;18281;51.364;9.566;2023-09-19T02:12:00;99300.78;;;13.41;100.00
31681;BME280;18281;51.364;9.566;2023-09-19T02:14:25;99304.88;;;13.12;100.00
31681;BME280;18281;51.364;9.566;2023-09-19T02:16:51;99296.84;;;13.36;100.00
31681;BME280;18281;51.364;9.566;2023-09-19T02:19:16;99293.25;;;13.37;100.00
31681;BME280;18281;51.364;9.566;2023-09-19T02:21:42;99307.03;;;12.95;100.00
31681;BME280;18281;51.364;9.566;2023-09-19T02:24:07;99308.34;;;13.23;100.00
31681;BME280;18281;51.364;9.566;2023-09-19T02:26:33;99310.84;;;13.14;100.00
31681;BME280;18281;51.364;9.566;2023-09-19T02:29:00;99313.84;;;13.09;100.00
31681;BME280;18281;51.364;9.566;2023-09-19T02:31:26;99310.50;;;13.30;100.00
31681;BME280;18281;51.364;9.566;2023-09-19T02:33:54;99313.88;;;13.32;100.00
31681;BME280;18281;51.364;9.566;2023-09-19T02:36:19;99310.28;;;13.33;100.00
31681;BME280;18281;51.364;9.566;2023-09-19T02:38:45;99325.72;;;13.03;100.00
31681;BME280;18281;51.364;9.566;2023-09-19T02:41:10;99312.19;;;12.97;100.00
31681;BME280;18281;51.364;9.566;2023-09-19T02:43:35;99319.00;;;13.11;100.00
31681;BME280;18281;51.364;9.566;2023-09-19T02:46:01;99312.81;;;12.65;100.00
31681;BME280;18281;51.364;9.566;2023-09-19T02:48:27;99320.19;;;12.48;100.00
31681;BME280;18281;51.364;9.566;2023-09-19T02:50:54;99332.69;;;12.69;100.00
31681;BME280;18281;51.364;9.566;2023-09-19T02:53:19;99330.03;;;12.69;100.00
31681;BME280;18281;51.364;9.566;2023-09-19T02:55:45;99332.53;;;12.95;100.00
31681;BME280;18281;51.364;9.566;2023-09-19T02:58:11;99332.53;;;13.17;100.00
31681;BME280;18281;51.364;9.566;2023-09-19T03:00:37;99331.00;;;13.03;100.00
31681;BME280;18281;51.364;9.566;2023-09-19T03:03:02;99339.97;;;13.01;100.00
31681;BME280;18281;51.364;9.566;2023-09-19T03:05:28;99339.06;;;12.78;100.00
31681;BME280;18281;51.364;9.566;2023-09-19T03:07:56;99349.31;;;12.69;100.00
31681;BME280;18281;51.364;9.566;2023-09-19T03:10:21;99345.84;;;12.69;100.00
31681;BME280;18281;51.364;9.566;2023-09-19T03:12:46;99352.53;;;12.62;100.00
31681;BME280;18281;51.364;9.566;2023-09-19T03:15:12;99355.94;;;12.86;100.00
31681;BME280;18281;51.364;9.566;2023-09-19T03:17:43;99355.13;;;12.86;100.00
31681;BME280;18281;51.364;9.566;2023-09-19T03:20:08;99356.13;;;12.72;100.00
31681;BME280;18281;51.364;9.566;2023-09-19T03:22:35;99361.47;;;12.83;100.00
31681;BME280;18281;51.364;9.566;2023-09-19T03:25:00;99364.13;;;12.95;100.00
31681;BME280;18281;51.364;9.566;2023-09-19T03:27:26;99366.47;;;12.86;100.00
31681;BME280;18281;51.364;9.566;2023-09-19T03:29:52;99359.78;;;12.82;100.00
31681;BME280;18281;51.364;9.566;2023-09-19T03:32:17;99359.16;;;12.79;100.00
31681;BME280;18281;51.364;9.566;2023-09-19T03:34:42;99366.47;;;12.75;100.00
31681;BME280;18281;51.364;9.566;2023-09-19T03:37:09;99358.53;;;12.39;100.00
31681;BME280;18281;51.364;9.566;2023-09-19T03:39:34;99367.84;;;12.56;100.00
31681;BME280;18281;51.364;9.566;2023-09-19T03:42:00;99368.34;;;12.62;100.00
31681;BME280;18281;51.364;9.566;2023-09-19T03:44:25;99359.69;;;12.59;100.00
31681;BME280;18281;51.364;9.566;2023-09-19T03:46:51;99364.97;;;12.59;100.00
31681;BME280;18281;51.364;9.566;2023-09-19T03:49:16;99372.38;;;12.30;100.00
31681;BME280;18281;51.364;9.566;2023-09-19T03:51:41;99380.16;;;12.32;100.00
31681;BME280;18281;51.364;9.566;2023-09-19T03:54:07;99374.00;;;12.44;100.00
31681;BME280;18281;51.364;9.566;2023-09-19T03:56:32;99383.41;;;12.59;100.00
31681;BME280;18281;51.364;9.566;2023-09-19T03:58:57;99388.28;;;12.29;100.00
31681;BME280;18281;51.364;9.566;2023-09-19T04:01:22;99392.38;;;12.33;100.00
31681;BME280;18281;51.364;9.566;2023-09-19T04:03:48;99396.03;;;12.19;100.00
31681;BME280;18281;51.364;9.566;2023-09-19T04:06:14;99387.00;;;12.34;100.00
31681;BME280;18281;51.364;9.566;2023-09-19T04:08:39;99388.41;;;12.51;100.00
31681;BME280;18281;51.364;9.566;2023-09-19T04:11:04;99392.31;;;12.21;100.00
31681;BME280;18281;51.364;9.566;2023-09-19T04:13:29;99387.50;;;12.39;100.00
31681;BME280;18281;51.364;9.566;2023-09-19T04:15:55;99386.72;;;12.50;100.00
31681;BME280;18281;51.364;9.566;2023-09-19T04:18:20;99386.44;;;12.42;100.00
31681;BME280;18281;51.364;9.566;2023-09-19T04:20:51;99398.25;;;12.61;100.00
31681;BME280;18281;51.364;9.566;2023-09-19T04:23:16;99397.09;;;12.40;100.00
31681;BME280;18281;51.364;9.566;2023-09-19T04:25:42;99392.97;;;12.61;100.00
31681;BME280;18281;51.364;9.566;2023-09-19T04:28:07;99395.75;;;12.35;100.00
31681;BME280;18281;51.364;9.566;2023-09-19T04:30:33;99403.06;;;12.42;100.00
31681;BME280;18281;51.364;9.566;2023-09-19T04:32:58;99404.47;;;12.35;100.00
31681;BME280;18281;51.364;9.566;2023-09-19T04:35:24;99396.56;;;12.59;100.00
31681;BME280;18281;51.364;9.566;2023-09-19T04:37:50;99396.13;;;12.66;100.00
31681;BME280;18281;51.364;9.566;2023-09-19T04:40:16;99402.06;;;12.56;100.00
31681;BME280;18281;51.364;9.566;2023-09-19T04:42:42;99400.19;;;12.70;100.00
31681;BME280;18281;51.364;9.566;2023-09-19T04:45:08;99399.94;;;12.62;100.00
31681;BME280;18281;51.364;9.566;2023-09-19T04:47:37;99401.78;;;12.72;100.00
31681;BME280;18281;51.364;9.566;2023-09-19T04:50:04;99406.28;;;12.59;100.00
31681;BME280;18281;51.364;9.566;2023-09-19T04:52:31;99402.28;;;12.53;100.00
31681;BME280;18281;51.364;9.566;2023-09-19T04:54:56;99408.69;;;12.38;100.00
31681;BME280;18281;51.364;9.566;2023-09-19T04:57:22;99406.38;;;12.57;100.00
31681;BME280;18281;51.364;9.566;2023-09-19T04:59:47;99407.34;;;12.56;100.00
31681;BME280;18281;51.364;9.566;2023-09-19T05:02:13;99402.78;;;12.58;100.00
31681;BME280;18281;51.364;9.566;2023-09-19T05:04:38;99398.94;;;12.51;100.00
31681;BME280;18281;51.364;9.566;2023-09-19T05:07:04;99405.13;;;12.50;100.00
31681;BME280;18281;51.364;9.566;2023-09-19T05:09:29;99398.91;;;13.11;100.00
31681;BME280;18281;51.364;9.566;2023-09-19T05:11:54;99404.97;;;13.47;100.00
31681;BME280;18281;51.364;9.566;2023-09-19T05:14:21;99399.44;;;13.62;100.00
31681;BME280;18281;51.364;9.566;2023-09-19T05:16:47;99405.19;;;13.67;100.00
31681;BME280;18281;51.364;9.566;2023-09-19T05:19:12;99408.78;;;13.77;100.00
31681;BME280;18281;51.364;9.566;2023-09-19T05:21:38;99412.47;;;13.86;100.00
31681;BME280;18281;51.364;9.566;2023-09-19T05:24:04;99413.94;;;13.90;100.00
31681;BME280;18281;51.364;9.566;2023-09-19T05:26:31;99410.22;;;13.92;100.00
31681;BME280;18281;51.364;9.566;2023-09-19T05:28:56;99417.75;;;13.86;100.00
31681;BME280;18281;51.364;9.566;2023-09-19T05:31:22;99415.03;;;13.87;100.00
31681;BME280;18281;51.364;9.566;2023-09-19T05:33:49;99427.25;;;13.66;100.00
31681;BME280;18281;51.364;9.566;2023-09-19T05:36:15;99428.94;;;13.55;100.00
31681;BME280;18281;51.364;9.566;2023-09-19T05:38:41;99432.66;;;13.53;100.00
31681;BME280;18281;51.364;9.566;2023-09-19T05:41:07;99437.19;;;13.51;100.00
31681;BME280;18281;51.364;9.566;2023-09-19T05:43:34;99445.16;;;13.15;100.00
31681;BME280;18281;51.364;9.566;2023-09-19T05:46:02;99449.94;;;12.86;100.00
31681;BME280;18281;51.364;9.566;2023-09-19T05:48:28;99458.16;;;12.70;100.00
31681;BME280;18281;51.364;9.566;2023-09-19T05:50:53;99461.38;;;12.73;100.00
31681;BME280;18281;51.364;9.566;2023-09-19T05:53:18;99460.94;;;12.55;100.00
31681;BME280;18281;51.364;9.566;2023-09-19T05:55:43;99460.56;;;12.36;100.00
31681;BME280;18281;51.364;9.566;2023-09-19T05:58:08;99460.69;;;12.58;100.00
31681;BME280;18281;51.364;9.566;2023-09-19T06:00:35;99467.09;;;12.67;100.00
31681;BME280;18281;51.364;9.566;2023-09-19T06:03:00;99472.03;;;12.48;100.00
31681;BME280;18281;51.364;9.566;2023-09-19T06:05:25;99473.66;;;13.10;100.00
31681;BME280;18281;51.364;9.566;2023-09-19T06:07:55;99478.78;;;13.47;100.00
31681;BME280;18281;51.364;9.566;2023-09-19T06:10:20;99497.13;;;13.60;100.00
31681;BME280;18281;51.364;9.566;2023-09-19T06:12:47;99494.66;;;13.81;100.00
31681;BME280;18281;51.364;9.566;2023-09-19T06:15:13;99494.63;;;13.58;100.00
31681;BME280;18281;51.364;9.566;2023-09-19T06:17:50;99496.56;;;13.68;100.00
31681;BME280;18281;51.364;9.566;2023-09-19T06:20:16;99509.28;;;13.85;100.00
31681;BME280;18281;51.364;9.566;2023-09-19T06:22:42;99508.25;;;13.41;100.00
31681;BME280;18281;51.364;9.566;2023-09-19T06:25:08;99508.50;;;13.38;100.00
31681;BME280;18281;51.364;9.566;2023-09-19T06:27:36;99508.69;;;13.23;100.00
31681;BME280;18281;51.364;9.566;2023-09-19T06:30:01;99513.06;;;13.12;100.00
31681;BME280;18281;51.364;9.566;2023-09-19T06:32:27;99528.22;;;12.97;100.00
31681;BME280;18281;51.364;9.566;2023-09-19T06:34:52;99532.75;;;12.95;100.00
31681;BME280;18281;51.364;9.566;2023-09-19T06:37:19;99540.53;;;12.96;100.00
31681;BME280;18281;51.364;9.566;2023-09-19T06:39:46;99545.78;;;12.72;100.00
31681;BME280;18281;51.364;9.566;2023-09-19T06:42:11;99553.28;;;12.89;100.00
31681;BME280;18281;51.364;9.566;2023-09-19T06:44:37;99554.16;;;12.90;100.00
31681;BME280;18281;51.364;9.566;2023-09-19T06:47:02;99563.78;;;13.15;100.00
31681;BME280;18281;51.364;9.566;2023-09-19T06:49:27;99569.47;;;12.72;100.00
31681;BME280;18281;51.364;9.566;2023-09-19T06:51:54;99567.63;;;12.85;100.00
31681;BME280;18281;51.364;9.566;2023-09-19T06:54:20;99573.75;;;12.62;100.00
31681;BME280;18281;51.364;9.566;2023-09-19T06:56:45;99572.41;;;12.43;100.00
31681;BME280;18281;51.364;9.566;2023-09-19T06:59:10;99577.16;;;12.25;100.00
31681;BME280;18281;51.364;9.566;2023-09-19T07:01:39;99580.84;;;12.35;100.00
31681;BME280;18281;51.364;9.566;2023-09-19T07:04:05;99583.22;;;12.51;100.00
31681;BME280;18281;51.364;9.566;2023-09-19T07:06:30;99580.72;;;12.37;100.00
31681;BME280;18281;51.364;9.566;2023-09-19T07:08:55;99576.16;;;12.52;100.00
31681;BME280;18281;51.364;9.566;2023-09-19T07:11:20;99578.94;;;12.24;100.00
31681;BME280;18281;51.364;9.566;2023-09-19T07:13:47;99581.66;;;12.49;100.00
31681;BME280;18281;51.364;9.566;2023-09-19T07:16:12;99574.34;;;12.65;100.00
31681;BME280;18281;51.364;9.566;2023-09-19T07:18:38;99573.16;;;12.69;100.00
31681;BME280;18281;51.364;9.566;2023-09-19T07:21:03;99576.25;;;12.63;100.00
31681;BME280;18281;51.364;9.566;2023-09-19T07:23:30;99586.97;;;12.73;100.00
31681;BME280;18281;51.364;9.566;2023-09-19T07:25:59;99587.31;;;12.68;100.00
31681;BME280;18281;51.364;9.566;2023-09-19T07:28:25;99580.78;;;12.61;100.00
31681;BME280;18281;51.364;9.566;2023-09-19T07:30:50;99588.13;;;12.82;100.00
31681;BME280;18281;51.364;9.566;2023-09-19T07:33:15;99586.78;;;12.63;100.00
31681;BME280;18281;51.364;9.566;2023-09-19T07:35:44;99596.56;;;12.61;100.00
31681;BME280;18281;51.364;9.566;2023-09-19T07:38:11;99587.00;;;12.60;100.00
31681;BME280;18281;51.364;9.566;2023-09-19T07:40:36;99584.88;;;12.65;100.00
31681;BME280;18281;51.364;9.566;2023-09-19T07:43:01;99584.16;;;12.63;100.00
31681;BME280;18281;51.364;9.566;2023-09-19T07:45:30;99592.19;;;12.99;100.00
31681;BME280;18281;51.364;9.566;2023-09-19T07:47:56;99600.31;;;12.96;100.00
31681;BME280;18281;51.364;9.566;2023-09-19T07:50:22;99604.41;;;12.87;99.91
31681;BME280;18281;51.364;9.566;2023-09-19T07:52:47;99597.13;;;12.90;100.00
31681;BME280;18281;51.364;9.566;2023-09-19T07:55:13;99593.78;;;12.88;100.00
31681;BME280;18281;51.364;9.566;2023-09-19T07:57:41;99602.31;;;12.92;99.37
31681;BME280;18281;51.364;9.566;2023-09-19T08:00:07;99592.66;;;13.17;99.23
31681;BME280;18281;51.364;9.566;2023-09-19T08:02:36;99593.16;;;12.85;98.89
31681;BME280;18281;51.364;9.566;2023-09-19T08:05:03;99599.38;;;13.21;99.11
31681;BME280;18281;51.364;9.566;2023-09-19T08:07:31;99603.50;;;13.12;97.73
31681;BME280;18281;51.364;9.566;2023-09-19T08:09:56;99607.16;;;13.22;98.40
31681;BME280;18281;51.364;9.566;2023-09-19T08:12:23;99612.53;;;13.45;97.55
31681;BME280;18281;51.364;9.566;2023-09-19T08:14:48;99612.56;;;13.21;96.90
31681;BME280;18281;51.364;9.566;2023-09-19T08:17:14;99609.84;;;13.09;96.80
31681;BME280;18281;51.364;9.566;2023-09-19T08:19:39;99615.69;;;13.26;96.26
31681;BME280;18281;51.364;9.566;2023-09-19T08:22:06;99614.31;;;13.20;95.76
31681;BME280;18281;51.364;9.566;2023-09-19T08:24:35;99607.44;;;12.56;96.62
31681;BME280;18281;51.364;9.566;2023-09-19T08:27:00;99615.91;;;12.86;95.39
31681;BME280;18281;51.364;9.566;2023-09-19T08:29:26;99610.03;;;13.19;94.74
31681;BME280;18281;51.364;9.566;2023-09-19T08:31:58;99609.75;;;13.35;95.11
31681;BME280;18281;51.364;9.566;2023-09-19T08:34:24;99619.03;;;13.52;95.61
31681;BME280;18281;51.364;9.566;2023-09-19T08:36:52;99618.84;;;13.31;95.00
31681;BME280;18281;51.364;9.566;2023-09-19T08:39:21;99617.13;;;13.54;95.25
31681;BME280;18281;51.364;9.566;2023-09-19T08:41:46;99619.16;;;13.51;95.58
31681;BME280;18281;51.364;9.566;2023-09-19T08:44:12;99621.63;;;13.41;96.01
31681;BME280;18281;51.364;9.566;2023-09-19T08:46:37;99624.53;;;13.49;95.52
31681;BME280;18281;51.364;9.566;2023-09-19T08:49:08;99615.72;;;13.62;94.28
31681;BME280;18281;51.364;9.566;2023-09-19T08:51:42;99615.97;;;13.70;94.48
31681;BME280;18281;51.364;9.566;2023-09-19T08:54:31;99626.47;;;13.47;94.31
31681;BME280;18281;51.364;9.566;2023-09-19T08:56:59;99623.28;;;13.66;94.13
31681;BME280;18281;51.364;9.566;2023-09-19T08:59:27;99624.94;;;13.32;95.31
31681;BME280;18281;51.364;9.566;2023-09-19T09:01:54;99622.66;;;13.63;94.90
31681;BME280;18281;51.364;9.566;2023-09-19T09:04:20;99633.66;;;13.56;93.43
31681;BME280;18281;51.364;9.566;2023-09-19T09:06:47;99630.56;;;13.51;92.63
31681;BME280;18281;51.364;9.566;2023-09-19T09:09:15;99635.41;;;13.69;92.61
31681;BME280;18281;51.364;9.566;2023-09-19T09:11:40;99635.34;;;13.57;92.71
31681;BME280;18281;51.364;9.566;2023-09-19T09:14:06;99638.19;;;13.79;91.73
31681;BME280;18281;51.364;9.566;2023-09-19T09:16:32;99630.31;;;13.54;92.19
31681;BME280;18281;51.364;9.566;2023-09-19T09:18:58;99628.75;;;13.87;91.81
31681;BME280;18281;51.364;9.566;2023-09-19T09:21:24;99630.13;;;13.93;91.84
31681;BME280;18281;51.364;9.566;2023-09-19T09:23:50;99644.41;;;13.42;91.25
31681;BME280;18281;51.364;9.566;2023-09-19T09:26:17;99632.50;;;13.61;91.84
31681;BME280;18281;51.364;9.566;2023-09-19T09:28:45;99627.25;;;13.72;90.67
31681;BME280;18281;51.364;9.566;2023-09-19T09:31:22;99627.53;;;13.80;90.45
31681;BME280;18281;51.364;9.566;2023-09-19T09:33:52;99629.50;;;13.89;89.63
31681;BME280;18281;51.364;9.566;2023-09-19T09:36:19;99624.72;;;14.06;90.49
31681;BME280;18281;51.364;9.566;2023-09-19T09:38:58;99631.47;;;14.21;90.01
31681;BME280;18281;51.364;9.566;2023-09-19T09:41:35;99630.75;;;14.19;89.75
31681;BME280;18281;51.364;9.566;2023-09-19T09:44:11;99629.31;;;14.26;88.00
31681;BME280;18281;51.364;9.566;2023-09-19T09:46:38;99637.63;;;14.33;88.05
31681;BME280;18281;51.364;9.566;2023-09-19T09:49:27;99628.75;;;14.34;87.26
31681;BME280;18281;51.364;9.566;2023-09-19T09:52:00;99627.28;;;14.53;86.89
31681;BME280;18281;51.364;9.566;2023-09-19T09:54:29;99628.00;;;14.43;86.99
31681;BME280;18281;51.364;9.566;2023-09-19T09:57:05;99636.06;;;14.76;88.23
31681;BME280;18281;51.364;9.566;2023-09-19T10:02:19;99642.53;;;14.49;85.43
31681;BME280;18281;51.364;9.566;2023-09-19T10:04:53;99636.63;;;14.57;85.15
31681;BME280;18281;51.364;9.566;2023-09-19T10:07:24;99643.00;;;14.77;84.95
31681;BME280;18281;51.364;9.566;2023-09-19T10:09:51;99641.34;;;14.87;84.51
31681;BME280;18281;51.364;9.566;2023-09-19T10:12:17;99630.50;;;14.90;83.47
31681;BME280;18281;51.364;9.566;2023-09-19T10:14:44;99631.94;;;15.06;84.19
31681;BME280;18281;51.364;9.566;2023-09-19T10:17:12;99628.06;;;15.21;83.09
31681;BME280;18281;51.364;9.566;2023-09-19T10:22:10;99630.72;;;15.10;82.05
31681;BME280;18281;51.364;9.566;2023-09-19T10:24:37;99628.63;;;15.36;81.89
31681;BME280;18281;51.364;9.566;2023-09-19T10:27:04;99633.84;;;15.04;80.82
31681;BME280;18281;51.364;9.566;2023-09-19T10:29:29;99639.63;;;15.09;81.10
31681;BME280;18281;51.364;9.566;2023-09-19T10:31:57;99631.16;;;15.26;81.47
31681;BME280;18281;51.364;9.566;2023-09-19T10:34:23;99628.16;;;15.31;81.50
31681;BME280;18281;51.364;9.566;2023-09-19T10:36:50;99630.50;;;15.46;80.96
31681;BME280;18281;51.364;9.566;2023-09-19T10:39:16;99636.34;;;15.49;79.84
31681;BME280;18281;51.364;9.566;2023-09-19T10:41:50;99628.56;;;15.15;80.12
31681;BME280;18281;51.364;9.566;2023-09-19T10:44:23;99638.38;;;15.57;79.75
31681;BME280;18281;51.364;9.566;2023-09-19T10:46:50;99633.25;;;15.44;78.62
31681;BME280;18281;51.364;9.566;2023-09-19T10:49:17;99631.41;;;15.88;78.91
31681;BME280;18281;51.364;9.566;2023-09-19T10:51:43;99627.78;;;15.89;79.38
31681;BME280;18281;51.364;9.566;2023-09-19T10:54:13;99624.53;;;15.65;78.79
31681;BME280;18281;51.364;9.566;2023-09-19T10:56:59;99619.22;;;15.65;79.02
31681;BME280;18281;51.364;9.566;2023-09-19T10:59:24;99613.59;;;15.58;78.17
31681;BME280;18281;51.364;9.566;2023-09-19T11:01:55;99616.31;;;15.79;78.15
31681;BME280;18281;51.364;9.566;2023-09-19T11:04:35;99615.84;;;15.95;78.50
31681;BME280;18281;51.364;9.566;2023-09-19T11:14:57;99594.34;;;15.88;77.10
31681;BME280;18281;51.364;9.566;2023-09-19T11:17:30;99607.22;;;16.03;77.03
31681;BME280;18281;51.364;9.566;2023-09-19T11:30:37;99603.28;;;16.18;76.66
31681;BME280;18281;51.364;9.566;2023-09-19T11:43:50;99606.38;;;16.23;76.95
31681;BME280;18281;51.364;9.566;2023-09-19T11:46:20;99596.94;;;16.31;76.86
31681;BME280;18281;51.364;9.566;2023-09-19T11:48:50;99600.78;;;16.17;76.65
31681;BME280;18281;51.364;9.566;2023-09-19T11:51:16;99587.59;;;16.36;77.26
31681;BME280;18281;51.364;9.566;2023-09-19T11:53:47;99592.19;;;16.55;76.53
31681;BME280;18281;51.364;9.566;2023-09-19T11:56:14;99597.59;;;16.54;75.19
31681;BME280;18281;51.364;9.566;2023-09-19T11:58:40;99595.94;;;16.22;74.06
31681;BME280;18281;51.364;9.566;2023-09-19T12:01:06;99595.44;;;16.38;74.83
31681;BME280;18281;51.364;9.566;2023-09-19T12:03:37;99602.88;;;16.23;73.83
31681;BME280;18281;51.364;9.566;2023-09-19T12:06:15;99606.75;;;16.19;73.56
31681;BME280;18281;51.364;9.566;2023-09-19T12:08:41;99601.53;;;16.59;73.24
31681;BME280;18281;51.364;9.566;2023-09-19T12:11:11;99601.28;;;16.41;73.33
31681;BME280;18281;51.364;9.566;2023-09-19T12:13:40;99596.41;;;16.68;73.77
31681;BME280;18281;51.364;9.566;2023-09-19T12:16:13;99600.28;;;16.64;74.86
31681;BME280;18281;51.364;9.566;2023-09-19T12:18:40;99596.88;;;16.52;74.84
31681;BME280;18281;51.364;9.566;2023-09-19T12:21:08;99594.13;;;16.53;75.13
31681;BME280;18281;51.364;9.566;2023-09-19T12:23:37;99585.41;;;16.82;74.27
31681;BME280;18281;51.364;9.566;2023-09-19T12:26:02;99593.97;;;17.05;74.47
31681;BME280;18281;51.364;9.566;2023-09-19T12:28:38;99583.53;;;16.53;74.04
31681;BME280;18281;51.364;9.566;2023-09-19T12:31:07;99584.09;;;16.57;74.68
31681;BME280;18281;51.364;9.566;2023-09-19T12:33:33;99587.09;;;16.52;73.92
31681;BME280;18281;51.364;9.566;2023-09-19T12:35:59;99594.38;;;16.50;73.25
31681;BME280;18281;51.364;9.566;2023-09-19T12:40:49;99587.19;;;16.62;73.32
31681;BME280;18281;51.364;9.566;2023-09-19T12:43:16;99595.59;;;16.46;72.98
31681;BME280;18281;51.364;9.566;2023-09-19T12:45:42;99587.06;;;16.33;73.01
31681;BME280;18281;51.364;9.566;2023-09-19T12:48:20;99593.19;;;16.33;72.79
31681;BME280;18281;51.364;9.566;2023-09-19T12:53:45;99592.66;;;16.80;72.95
31681;BME280;18281;51.364;9.566;2023-09-19T12:56:16;99592.88;;;16.57;71.97
31681;BME280;18281;51.364;9.566;2023-09-19T12:58:52;99586.56;;;16.49;72.25
31681;BME280;18281;51.364;9.566;2023-09-19T13:01:21;99584.94;;;16.67;73.71
31681;BME280;18281;51.364;9.566;2023-09-19T13:06:37;99583.63;;;16.52;74.07
31681;BME280;18281;51.364;9.566;2023-09-19T13:09:10;99585.94;;;16.76;73.16
31681;BME280;18281;51.364;9.566;2023-09-19T13:11:37;99586.88;;;16.55;73.31
31681;BME280;18281;51.364;9.566;2023-09-19T13:19:42;99576.00;;;16.58;73.78
31681;BME280;18281;51.364;9.566;2023-09-19T13:25:29;99581.88;;;16.62;73.73
31681;BME280;18281;51.364;9.566;2023-09-19T13:27:55;99585.81;;;16.77;74.30
31681;BME280;18281;51.364;9.566;2023-09-19T13:30:22;99574.97;;;16.50;74.10
31681;BME280;18281;51.364;9.566;2023-09-19T13:32:47;99581.03;;;16.62;74.16
31681;BME280;18281;51.364;9.566;2023-09-19T13:35:13;99568.66;;;16.41;74.39
31681;BME280;18281;51.364;9.566;2023-09-19T13:37:39;99580.34;;;16.59;74.79
31681;BME280;18281;51.364;9.566;2023-09-19T13:40:11;99579.63;;;16.67;74.63
31681;BME280;18281;51.364;9.566;2023-09-19T13:42:36;99569.91;;;16.87;74.95
31681;BME280;18281;51.364;9.566;2023-09-19T13:45:05;99561.84;;;16.99;74.77
31681;BME280;18281;51.364;9.566;2023-09-19T13:47:31;99563.78;;;16.87;74.91
31681;BME280;18281;51.364;9.566;2023-09-19T13:49:57;99555.09;;;16.55;74.55
31681;BME280;18281;51.364;9.566;2023-09-19T13:52:22;99555.63;;;16.59;74.43
31681;BME280;18281;51.364;9.566;2023-09-19T13:54:48;99562.09;;;16.66;74.31
31681;BME280;18281;51.364;9.566;2023-09-19T13:57:13;99554.72;;;16.39;73.36